createdAt,value
2023-03-23T00:02:03.204Z,20.08
2023-03-23T00:04:35.636Z,19.15
2023-03-23T00:07:07.754Z,19.02
2023-03-23T00:09:42.179Z,19.50
2023-03-23T00:12:16.729Z,20.83
2023-03-23T00:14:49.434Z,20.35
2023-03-23T00:17:24.591Z,20.15
2023-03-23T00:19:57.544Z,20.45
2023-03-23T00:22:30.344Z,20.73
2023-03-23T00:25:03.209Z,21.80
2023-03-23T00:27:35.662Z,23.38
2023-03-23T00:30:08.849Z,22.63
2023-03-23T00:32:41.315Z,22.65
2023-03-23T00:35:13.368Z,22.88
2023-03-23T00:37:45.542Z,24.30
2023-03-23T00:40:18.346Z,22.20
2023-03-23T00:42:50.637Z,22.45
2023-03-23T00:45:22.982Z,21.73
2023-03-23T00:47:55.131Z,21.92
2023-03-23T00:50:33.758Z,20.98
2023-03-23T00:53:10.807Z,21.25
2023-03-23T00:55:44.709Z,21.92
2023-03-23T00:58:17.500Z,22.27
2023-03-23T01:00:49.636Z,22.05
2023-03-23T01:03:22.143Z,21.27
2023-03-23T01:05:56.822Z,20.63
2023-03-23T01:08:29.494Z,20.33
2023-03-23T01:11:07.808Z,19.83
2023-03-23T01:13:41.459Z,20.02
2023-03-23T01:16:14.846Z,20.77
2023-03-23T01:18:47.142Z,20.65
2023-03-23T01:21:21.879Z,21.25
2023-03-23T01:23:54.478Z,22.40
2023-03-23T01:26:28.617Z,21.38
2023-03-23T01:29:01.415Z,22.20
2023-03-23T01:31:35.897Z,21.58
2023-03-23T01:34:09.364Z,21.80
2023-03-23T01:36:42.038Z,23.17
2023-03-23T01:39:14.559Z,21.42
2023-03-23T01:41:47.727Z,22.23
2023-03-23T01:44:19.784Z,23.90
2023-03-23T01:46:52.149Z,23.65
2023-03-23T01:49:39.374Z,25.13
2023-03-23T01:52:24.898Z,22.48
2023-03-23T01:54:59.310Z,23.55
2023-03-23T01:57:32.589Z,23.42
2023-03-23T02:00:15.658Z,24.10
2023-03-23T02:02:51.413Z,23.60
2023-03-23T02:05:36.431Z,23.52
2023-03-23T02:08:11.929Z,24.30
2023-03-23T02:10:44.162Z,25.08
2023-03-23T02:13:24.004Z,23.40
2023-03-23T02:16:34.681Z,23.55
2023-03-23T02:22:29.299Z,21.45
2023-03-23T02:25:41.485Z,23.70
2023-03-23T02:28:48.784Z,23.83
2023-03-23T02:31:49.062Z,22.52
2023-03-23T02:34:46.317Z,21.85
2023-03-23T02:37:29.026Z,21.90
2023-03-23T02:40:13.764Z,23.27
2023-03-23T02:42:51.262Z,23.70
2023-03-23T02:45:25.482Z,23.25
2023-03-23T02:47:58.786Z,22.75
2023-03-23T02:50:32.859Z,23.85
2023-03-23T02:53:11.518Z,23.70
2023-03-23T02:55:45.973Z,24.27
2023-03-23T02:58:18.181Z,23.63
2023-03-23T03:00:51.999Z,23.75
2023-03-23T03:03:29.846Z,23.23
2023-03-23T03:06:30.926Z,22.15
2023-03-23T03:09:36.813Z,21.17
2023-03-23T03:12:36.372Z,20.00
2023-03-23T03:15:33.934Z,21.23
2023-03-23T03:18:26.402Z,21.45
2023-03-23T03:21:07.206Z,19.83
2023-03-23T03:23:44.533Z,20.13
2023-03-23T03:26:18.409Z,20.17
2023-03-23T03:28:50.955Z,19.45
2023-03-23T03:31:33.987Z,18.75
2023-03-23T03:34:07.609Z,19.02
2023-03-23T03:36:42.394Z,19.73
2023-03-23T03:39:18.403Z,18.08
2023-03-23T03:41:50.596Z,18.67
2023-03-23T03:44:23.298Z,19.20
2023-03-23T03:46:55.687Z,17.85
2023-03-23T03:49:28.178Z,18.63
2023-03-23T03:52:00.440Z,19.17
2023-03-23T03:54:32.553Z,17.85
2023-03-23T03:57:04.841Z,16.80
2023-03-23T03:59:37.091Z,17.75
2023-03-23T04:02:09.700Z,16.05
2023-03-23T04:04:42.803Z,17.63
2023-03-23T04:07:17.372Z,16.05
2023-03-23T04:09:50.491Z,16.73
2023-03-23T04:12:22.838Z,15.40
2023-03-23T04:14:55.036Z,16.20
2023-03-23T04:17:38.956Z,16.33
2023-03-23T04:20:18.925Z,14.98
2023-03-23T04:23:04.590Z,14.98
2023-03-23T04:25:37.033Z,13.75
2023-03-23T04:28:11.460Z,14.27
2023-03-23T04:30:44.809Z,12.93
2023-03-23T04:33:17.184Z,12.57
2023-03-23T04:35:57.792Z,11.32
2023-03-23T04:38:33.812Z,11.18
2023-03-23T04:41:19.678Z,10.52
2023-03-23T04:43:54.490Z,10.85
2023-03-23T04:46:30.062Z,10.23
2023-03-23T04:49:03.187Z,10.00
2023-03-23T04:51:37.292Z,11.07
2023-03-23T04:54:09.791Z,8.68
2023-03-23T04:56:42.540Z,10.38
2023-03-23T04:59:18.576Z,9.57
2023-03-23T05:01:51.922Z,8.50
2023-03-23T05:04:44.123Z,9.98
2023-03-23T05:07:17.117Z,9.07
2023-03-23T05:09:50.349Z,8.68
2023-03-23T05:12:22.703Z,7.88
2023-03-23T05:14:54.981Z,9.43
2023-03-23T05:17:27.840Z,9.05
2023-03-23T05:20:00.462Z,7.85
2023-03-23T05:22:35.254Z,7.85
2023-03-23T05:25:12.102Z,7.85
2023-03-23T05:27:44.568Z,8.60
2023-03-23T05:30:18.082Z,7.70
2023-03-23T05:32:53.406Z,7.65
2023-03-23T05:35:25.647Z,6.97
2023-03-23T05:37:58.229Z,8.20
2023-03-23T05:40:34.386Z,7.95
2023-03-23T05:43:06.611Z,8.52
2023-03-23T05:45:38.775Z,8.88
2023-03-23T05:48:10.951Z,9.38
2023-03-23T05:50:43.105Z,9.20
2023-03-23T05:53:15.253Z,9.18
2023-03-23T05:55:48.159Z,9.95
2023-03-23T05:58:20.576Z,8.95
2023-03-23T06:00:52.774Z,8.63
2023-03-23T06:03:30.918Z,8.23
2023-03-23T06:06:04.698Z,9.43
2023-03-23T06:08:39.313Z,7.80
2023-03-23T06:11:11.748Z,8.07
2023-03-23T06:13:44.216Z,8.27
2023-03-23T06:16:16.939Z,8.15
2023-03-23T06:18:49.662Z,8.02
2023-03-23T06:21:23.096Z,6.65
2023-03-23T06:23:55.261Z,7.28
2023-03-23T06:26:33.812Z,6.70
2023-03-23T06:29:12.195Z,7.97
2023-03-23T06:32:01.992Z,6.90
2023-03-23T06:34:34.320Z,6.78
2023-03-23T06:37:06.746Z,7.25
2023-03-23T06:39:39.572Z,6.43
2023-03-23T06:42:13.174Z,7.97
2023-03-23T06:44:45.431Z,6.35
2023-03-23T06:47:21.270Z,6.45
2023-03-23T06:49:53.611Z,6.65
2023-03-23T06:52:26.916Z,6.53
2023-03-23T06:54:59.041Z,6.97
2023-03-23T06:57:31.187Z,6.40
2023-03-23T07:00:06.531Z,7.15
2023-03-23T07:02:43.264Z,7.70
2023-03-23T07:05:15.574Z,7.55
2023-03-23T07:07:47.705Z,7.80
2023-03-23T07:10:20.513Z,7.78
2023-03-23T07:12:53.540Z,7.55
2023-03-23T07:15:25.591Z,7.55
2023-03-23T07:17:57.976Z,8.50
2023-03-23T07:20:31.171Z,8.88
2023-03-23T07:23:06.333Z,8.77
2023-03-23T07:25:46.829Z,9.93
2023-03-23T07:28:19.887Z,8.95
2023-03-23T07:30:54.301Z,10.45
2023-03-23T10:58:44.965Z,3.78
2023-03-23T11:02:05.665Z,4.80
2023-03-23T11:17:29.620Z,3.17
2023-03-23T11:44:16.961Z,3.05
2023-03-23T11:59:52.905Z,2.25
2023-03-23T12:11:43.709Z,3.40
2023-03-23T12:14:36.564Z,2.78
2023-03-23T12:17:40.612Z,2.83
2023-03-23T12:23:46.325Z,2.65
2023-03-23T12:30:32.103Z,2.95
2023-03-23T12:33:47.899Z,2.30
2023-03-23T12:36:38.540Z,1.67
2023-03-23T12:40:24.919Z,2.15
2023-03-23T12:46:36.612Z,2.63
2023-03-23T12:49:17.598Z,2.15
2023-03-23T12:52:43.973Z,2.05
2023-03-23T12:55:25.112Z,2.15
2023-03-23T12:58:28.309Z,2.10
2023-03-23T13:01:23.015Z,3.15
2023-03-23T13:04:28.637Z,3.10
2023-03-23T13:07:04.497Z,2.63
2023-03-23T13:10:05.399Z,2.30
2023-03-23T13:12:44.647Z,2.58
2023-03-23T13:15:51.146Z,2.22
2023-03-23T13:18:41.440Z,1.67
2023-03-23T13:24:19.255Z,1.98
2023-03-23T13:26:52.156Z,2.78
2023-03-23T13:29:28.942Z,1.73
2023-03-23T13:32:49.930Z,1.63
2023-03-23T13:35:26.884Z,2.08
2023-03-23T13:37:59.698Z,1.95
2023-03-23T13:40:33.258Z,2.35
2023-03-23T13:43:06.563Z,2.60
2023-03-23T13:45:48.045Z,3.53
2023-03-23T13:48:25.473Z,2.58
2023-03-23T13:51:02.781Z,2.47
2023-03-23T13:53:49.361Z,2.75
2023-03-23T13:56:42.709Z,3.53
2023-03-23T13:59:32.680Z,2.85
2023-03-23T14:02:40.322Z,2.75
2023-03-23T14:05:44.476Z,2.40
2023-03-23T14:08:29.989Z,2.60
2023-03-23T14:11:25.302Z,3.13
2023-03-23T14:14:16.904Z,3.47
2023-03-23T14:16:55.781Z,2.80
2023-03-23T14:19:30.819Z,3.83
2023-03-23T14:22:03.790Z,2.85
2023-03-23T14:24:41.956Z,2.38
2023-03-23T14:27:25.009Z,2.42
2023-03-23T14:30:09.712Z,2.95
2023-03-23T14:32:42.703Z,4.15
2023-03-23T14:35:35.455Z,2.30
2023-03-23T14:38:19.572Z,3.28
2023-03-23T14:40:52.125Z,2.78
2023-03-23T14:43:25.691Z,3.47
2023-03-23T14:46:02.737Z,2.85
2023-03-23T14:48:36.291Z,2.97
2023-03-23T14:51:19.465Z,2.97
2023-03-23T14:53:55.299Z,3.28
2023-03-23T14:56:37.817Z,2.45
2023-03-23T14:59:12.264Z,2.67
2023-03-23T15:01:47.192Z,3.58
2023-03-23T15:04:23.751Z,3.22
2023-03-23T15:07:05.651Z,3.53
2023-03-23T15:09:58.237Z,3.00
2023-03-23T15:12:32.474Z,3.78
2023-03-23T15:15:09.001Z,3.80
2023-03-23T15:17:41.233Z,3.65
2023-03-23T15:20:49.981Z,2.78
2023-03-23T15:23:30.657Z,2.90
2023-03-23T15:26:09.155Z,2.45
2023-03-23T15:28:42.241Z,2.80
2023-03-23T15:31:14.502Z,2.97
2023-03-23T15:33:46.902Z,3.13
2023-03-23T15:36:19.643Z,2.47
2023-03-23T15:38:51.893Z,3.42
2023-03-23T15:41:31.928Z,2.55
2023-03-23T15:44:32.241Z,2.25
2023-03-23T15:47:18.454Z,2.58
2023-03-23T15:50:25.793Z,4.05
2023-03-23T15:52:58.020Z,3.25
2023-03-23T15:55:38.224Z,2.05
2023-03-23T15:58:13.446Z,3.38
2023-03-23T16:00:47.912Z,3.80
2023-03-23T16:03:27.942Z,2.75
2023-03-23T16:06:03.395Z,2.63
2023-03-23T16:08:41.268Z,2.30
2023-03-23T16:11:31.547Z,2.20
2023-03-23T16:14:03.835Z,1.95
2023-03-23T16:16:43.574Z,1.80
2023-03-23T16:19:16.932Z,2.17
2023-03-23T16:21:49.090Z,1.98
2023-03-23T16:24:21.252Z,2.47
2023-03-23T16:26:53.650Z,2.70
2023-03-23T16:29:43.403Z,1.80
2023-03-23T16:32:17.906Z,2.05
2023-03-23T16:34:50.500Z,2.42
2023-03-23T16:37:22.635Z,2.13
2023-03-23T16:39:54.758Z,1.90
2023-03-23T16:42:27.036Z,2.10
2023-03-23T16:44:59.244Z,1.92
2023-03-23T16:47:31.426Z,2.00
2023-03-23T16:50:07.009Z,2.75
2023-03-23T16:52:46.381Z,1.45
2023-03-23T16:55:18.884Z,1.85
2023-03-23T16:57:51.097Z,2.20
2023-03-23T17:00:23.869Z,2.15
2023-03-23T17:02:57.658Z,1.70
2023-03-23T17:05:30.196Z,1.80
2023-03-23T17:08:02.529Z,1.85
2023-03-23T17:10:38.248Z,1.52
2023-03-23T17:13:11.244Z,1.67
2023-03-23T17:15:46.921Z,2.08
2023-03-23T17:18:19.687Z,1.40
2023-03-23T17:20:54.359Z,1.70
2023-03-23T17:23:26.841Z,1.83
2023-03-23T17:25:59.003Z,2.28
2023-03-23T17:28:31.218Z,1.95
2023-03-23T17:31:03.848Z,2.20
2023-03-23T17:33:35.945Z,1.95
2023-03-23T17:36:09.081Z,2.72
2023-03-23T17:38:41.362Z,2.42
2023-03-23T17:41:13.552Z,2.13
2023-03-23T17:43:45.698Z,2.20
2023-03-23T17:46:18.481Z,2.50
2023-03-23T17:48:51.951Z,2.15
2023-03-23T17:51:24.212Z,2.72
2023-03-23T17:53:56.352Z,2.20
2023-03-23T17:56:28.748Z,2.60
2023-03-23T17:59:00.846Z,2.80
2023-03-23T18:01:33.201Z,2.15
2023-03-23T18:04:06.330Z,2.05
2023-03-23T18:06:38.504Z,2.60
2023-03-23T18:09:11.089Z,2.78
2023-03-23T18:11:43.210Z,2.70
2023-03-23T18:14:15.574Z,2.42
2023-03-23T18:16:48.522Z,2.80
2023-03-23T18:19:20.732Z,2.83
2023-03-23T18:21:52.851Z,3.15
2023-03-23T18:24:25.053Z,3.08
2023-03-23T18:26:57.339Z,2.70
2023-03-23T18:29:29.530Z,3.28
2023-03-23T18:32:01.648Z,2.78
2023-03-23T18:34:34.600Z,2.70
2023-03-23T18:37:06.805Z,2.70
2023-03-23T18:39:39.460Z,3.25
2023-03-23T18:42:11.741Z,2.78
2023-03-23T18:44:43.953Z,3.05
2023-03-23T18:47:16.272Z,3.17
2023-03-23T18:49:52.088Z,3.03
2023-03-23T18:52:26.825Z,3.05
2023-03-23T18:54:59.558Z,3.13
2023-03-23T18:57:31.821Z,2.67
2023-03-23T19:00:05.002Z,2.88
2023-03-23T19:02:39.610Z,2.58
2023-03-23T19:05:12.336Z,3.95
2023-03-23T19:07:44.537Z,3.95
2023-03-23T19:10:17.454Z,3.70
2023-03-23T19:12:50.634Z,3.45
2023-03-23T19:15:24.707Z,3.70
2023-03-23T19:17:56.968Z,3.25
2023-03-23T19:20:47.242Z,3.17
2023-03-23T19:23:23.226Z,3.75
2023-03-23T19:25:55.470Z,3.25
2023-03-23T19:31:02.851Z,3.38
2023-03-23T19:33:35.045Z,4.80
2023-03-23T19:36:11.681Z,4.55
2023-03-23T19:38:45.661Z,4.55
2023-03-23T19:41:19.262Z,6.47
2023-03-23T19:43:51.864Z,5.45
2023-03-23T19:46:25.981Z,5.07
2023-03-23T19:49:00.142Z,4.28
2023-03-23T19:51:32.279Z,5.88
2023-03-23T19:54:07.343Z,4.88
2023-03-23T19:56:39.767Z,5.03
2023-03-23T19:59:15.007Z,5.65
2023-03-23T20:01:47.600Z,5.22
2023-03-23T20:04:21.584Z,9.00
2023-03-23T20:06:57.079Z,6.70
2023-03-23T20:09:30.702Z,6.97
2023-03-23T20:12:05.068Z,7.45
2023-03-23T20:14:38.426Z,6.68
2023-03-23T20:17:11.976Z,6.97
2023-03-23T20:19:44.569Z,6.80
2023-03-23T20:22:17.856Z,7.15
2023-03-23T20:24:50.054Z,7.50
2023-03-23T20:27:22.202Z,7.55
2023-03-23T20:29:57.005Z,7.28
2023-03-23T20:32:33.284Z,10.43
2023-03-23T20:35:09.524Z,8.68
2023-03-23T20:37:42.361Z,7.88
2023-03-23T20:40:15.293Z,7.72
2023-03-23T20:42:49.275Z,8.35
2023-03-23T20:45:21.529Z,8.13
2023-03-23T20:47:54.003Z,9.20
2023-03-23T20:50:26.278Z,9.20
2023-03-23T20:52:58.461Z,10.52
2023-03-23T20:55:30.647Z,9.07
2023-03-23T20:58:05.695Z,9.80
2023-03-23T21:00:41.248Z,9.88
2023-03-23T21:03:16.234Z,11.00
2023-03-23T21:05:48.349Z,10.70
2023-03-23T21:08:20.502Z,10.85
2023-03-23T21:10:52.681Z,12.25
2023-03-23T21:13:25.177Z,12.88
2023-03-23T21:15:57.453Z,16.35
2023-03-23T21:18:30.195Z,13.20
2023-03-23T21:21:04.496Z,10.85
2023-03-23T21:23:38.509Z,11.43
2023-03-23T21:26:12.196Z,11.65
2023-03-23T21:28:45.611Z,11.70
2023-03-23T21:31:18.517Z,11.52
2023-03-23T21:33:50.904Z,9.88
2023-03-23T21:36:24.883Z,12.00
2023-03-23T21:38:57.393Z,11.40
2023-03-23T21:41:41.705Z,12.60
2023-03-23T21:44:15.515Z,11.45
2023-03-23T21:46:47.649Z,11.55
2023-03-23T21:49:19.939Z,12.68
2023-03-23T21:51:52.132Z,11.93
2023-03-23T21:54:24.249Z,12.95
2023-03-23T21:56:58.887Z,13.18
2023-03-23T21:59:31.325Z,12.90
2023-03-23T22:02:03.594Z,12.90
2023-03-23T22:04:35.873Z,14.27
2023-03-23T22:07:08.292Z,11.73
2023-03-23T22:09:45.122Z,11.20
2023-03-23T22:12:18.108Z,11.32
2023-03-23T22:14:50.529Z,10.52
2023-03-23T22:17:22.760Z,11.13
2023-03-23T22:19:54.968Z,10.65
2023-03-23T22:22:27.580Z,10.60
2023-03-23T22:24:59.724Z,9.88
2023-03-23T22:27:32.294Z,9.05
2023-03-23T22:30:05.430Z,10.15
2023-03-23T22:32:38.243Z,8.68
2023-03-23T22:35:12.727Z,9.60
2023-03-23T22:37:45.037Z,7.82
2023-03-23T22:40:18.284Z,7.82
2023-03-23T22:42:54.098Z,7.70
2023-03-23T22:45:28.043Z,8.00
2023-03-23T22:48:00.419Z,6.85
2023-03-23T22:50:32.573Z,7.32
2023-03-23T22:53:04.986Z,6.65
2023-03-23T22:55:42.075Z,6.97
2023-03-23T22:58:16.184Z,6.38
2023-03-23T23:00:55.167Z,5.70
2023-03-23T23:03:28.352Z,7.30
2023-03-23T23:06:01.780Z,5.82
2023-03-23T23:08:34.503Z,5.40
2023-03-23T23:11:07.642Z,4.43
2023-03-23T23:13:41.497Z,4.53
2023-03-23T23:16:17.439Z,6.07
2023-03-23T23:18:49.988Z,5.28
2023-03-23T23:21:26.191Z,6.80
2023-03-23T23:23:58.398Z,4.60
2023-03-23T23:26:31.027Z,4.30
2023-03-23T23:29:04.574Z,4.60
2023-03-23T23:31:36.949Z,4.55
2023-03-23T23:34:14.249Z,4.07
2023-03-23T23:36:46.826Z,4.50
2023-03-23T23:39:19.124Z,4.70
2023-03-23T23:41:51.522Z,4.63
2023-03-23T23:44:23.767Z,4.80
2023-03-23T23:46:57.665Z,5.68
2023-03-23T23:49:30.016Z,4.50
2023-03-23T23:52:02.464Z,5.03
2023-03-23T23:54:37.699Z,4.75
2023-03-23T23:57:10.005Z,4.00
2023-03-23T23:59:42.476Z,5.03
